Ulysses, Nebraska
Current Conditions -  °F | °C
As of 8:15 PM on Friday 28 Nov 2014 (Local Time) from KJYR Reporting Station
Clear Clear  
Wind Chill: 40°   Ceiling: Unl
Heat Index: 45°   Visibility: 10mi
Dew Point: 41°   Wind: 9mph
Humidity: 87%   Direction: 210°SSW
Pressure: 29.64"   Gusts: NA
Location:  41.07°N, 97.2°W
Report Text: KJYR 290215Z AUTO 21008KT 10SM CLR 07/05 A2964 RMK AO2
Loading
Personal Weather Stations






























Interactive Weather Map New forecast layout! Learn more

10-Day Weather Forecast

Advertisements
Track Severe Weather on mobile